Terminal Aerodrome Forecast
Issued by NWS

Home | Current Version | Previous Version | Text Only | Print | Product List | Glossary On
Versions: 1 2 3 4 5 6 7 8 9 10 11 12 13 14 15
000
FTUS45 KLKN 252300
TAFEKO
TAF
KEKO 252320Z 2600/2624 23016G26KT P6SM SCT100
      TEMPO 2601/2603 2SM BLDU BKN100
     FM260300 24010KT P6SM SCT100
     FM261000 24005KT P6SM VCSH BKN100
     FM261800 26014G24KT P6SM SCT100=

USA.gov is the U.S. government's official web portal to all federal, state and local government web resources and services.